sensor_id;sensor_type;location;lat;lon;timestamp;temperature;humidity
24682;DHT22;12802;53.390;-2.328;2023-04-30T00:01:10;13.60;99.90
24682;DHT22;12802;53.390;-2.328;2023-04-30T00:03:35;13.60;99.90
24682;DHT22;12802;53.390;-2.328;2023-04-30T00:06:01;13.60;99.90
24682;DHT22;12802;53.390;-2.328;2023-04-30T00:08:27;13.60;99.90
24682;DHT22;12802;53.390;-2.328;2023-04-30T00:10:54;13.60;99.90
24682;DHT22;12802;53.390;-2.328;2023-04-30T00:13:20;13.70;99.90
24682;DHT22;12802;53.390;-2.328;2023-04-30T00:15:45;13.60;99.90
24682;DHT22;12802;53.390;-2.328;2023-04-30T00:18:11;13.60;99.90
24682;DHT22;12802;53.390;-2.328;2023-04-30T00:20:37;13.50;99.90
24682;DHT22;12802;53.390;-2.328;2023-04-30T00:23:03;13.40;99.90
24682;DHT22;12802;53.390;-2.328;2023-04-30T00:25:28;13.30;99.90
24682;DHT22;12802;53.390;-2.328;2023-04-30T00:27:54;13.30;99.90
24682;DHT22;12802;53.390;-2.328;2023-04-30T00:30:20;13.30;99.90
24682;DHT22;12802;53.390;-2.328;2023-04-30T00:32:46;13.30;99.90
24682;DHT22;12802;53.390;-2.328;2023-04-30T00:35:11;13.30;99.90
24682;DHT22;12802;53.390;-2.328;2023-04-30T00:37:37;13.30;99.90
24682;DHT22;12802;53.390;-2.328;2023-04-30T00:40:03;13.30;99.90
24682;DHT22;12802;53.390;-2.328;2023-04-30T00:42:29;13.30;99.90
24682;DHT22;12802;53.390;-2.328;2023-04-30T00:44:55;13.30;99.90
24682;DHT22;12802;53.390;-2.328;2023-04-30T00:47:21;13.30;99.90
24682;DHT22;12802;53.390;-2.328;2023-04-30T00:49:47;13.30;99.90
24682;DHT22;12802;53.390;-2.328;2023-04-30T00:52:13;13.30;99.90
24682;DHT22;12802;53.390;-2.328;2023-04-30T00:54:39;13.20;99.90
24682;DHT22;12802;53.390;-2.328;2023-04-30T00:57:06;13.10;99.90
24682;DHT22;12802;53.390;-2.328;2023-04-30T00:59:34;13.00;99.90
24682;DHT22;12802;53.390;-2.328;2023-04-30T01:02:00;13.00;99.90
24682;DHT22;12802;53.390;-2.328;2023-04-30T01:04:27;13.00;99.90
24682;DHT22;12802;53.390;-2.328;2023-04-30T01:06:53;13.10;99.90
24682;DHT22;12802;53.390;-2.328;2023-04-30T01:09:19;13.10;99.90
24682;DHT22;12802;53.390;-2.328;2023-04-30T01:15:02;13.10;99.90
24682;DHT22;12802;53.390;-2.328;2023-04-30T01:20:28;13.10;99.90
24682;DHT22;12802;53.390;-2.328;2023-04-30T01:26:05;13.20;99.90
24682;DHT22;12802;53.390;-2.328;2023-04-30T01:28:35;13.20;99.90
24682;DHT22;12802;53.390;-2.328;2023-04-30T01:31:01;13.10;99.90
24682;DHT22;12802;53.390;-2.328;2023-04-30T01:33:27;13.10;99.90
24682;DHT22;12802;53.390;-2.328;2023-04-30T01:35:56;13.10;99.90
24682;DHT22;12802;53.390;-2.328;2023-04-30T01:41:00;13.00;99.90
24682;DHT22;12802;53.390;-2.328;2023-04-30T01:44:11;13.00;99.90
24682;DHT22;12802;53.390;-2.328;2023-04-30T01:46:29;13.00;99.90
24682;DHT22;12802;53.390;-2.328;2023-04-30T01:51:42;13.00;99.90
24682;DHT22;12802;53.390;-2.328;2023-04-30T01:57:14;12.90;99.90
24682;DHT22;12802;53.390;-2.328;2023-04-30T01:59:42;12.80;99.90
24682;DHT22;12802;53.390;-2.328;2023-04-30T02:02:08;12.70;99.90
24682;DHT22;12802;53.390;-2.328;2023-04-30T02:04:33;12.70;99.90
24682;DHT22;12802;53.390;-2.328;2023-04-30T02:06:59;12.70;99.90
24682;DHT22;12802;53.390;-2.328;2023-04-30T02:09:25;12.50;99.90
24682;DHT22;12802;53.390;-2.328;2023-04-30T02:11:51;12.40;99.90
24682;DHT22;12802;53.390;-2.328;2023-04-30T02:14:17;12.40;99.90
24682;DHT22;12802;53.390;-2.328;2023-04-30T02:16:43;12.40;99.90
24682;DHT22;12802;53.390;-2.328;2023-04-30T02:19:09;12.40;99.90
24682;DHT22;12802;53.390;-2.328;2023-04-30T02:21:36;12.50;99.90
24682;DHT22;12802;53.390;-2.328;2023-04-30T02:24:01;12.50;99.90
24682;DHT22;12802;53.390;-2.328;2023-04-30T02:26:27;12.50;99.90
24682;DHT22;12802;53.390;-2.328;2023-04-30T02:28:53;12.60;99.90
24682;DHT22;12802;53.390;-2.328;2023-04-30T02:31:18;12.70;99.90
24682;DHT22;12802;53.390;-2.328;2023-04-30T02:33:44;12.80;99.90
24682;DHT22;12802;53.390;-2.328;2023-04-30T02:36:10;12.80;99.90
24682;DHT22;12802;53.390;-2.328;2023-04-30T02:38:36;12.90;99.90
24682;DHT22;12802;53.390;-2.328;2023-04-30T02:41:01;12.90;99.90
24682;DHT22;12802;53.390;-2.328;2023-04-30T02:43:28;12.90;99.90
24682;DHT22;12802;53.390;-2.328;2023-04-30T02:45:53;12.90;99.90
24682;DHT22;12802;53.390;-2.328;2023-04-30T02:48:19;12.90;99.90
24682;DHT22;12802;53.390;-2.328;2023-04-30T02:50:45;12.80;99.90
24682;DHT22;12802;53.390;-2.328;2023-04-30T02:53:11;12.80;99.90
24682;DHT22;12802;53.390;-2.328;2023-04-30T02:55:37;12.80;99.90
24682;DHT22;12802;53.390;-2.328;2023-04-30T02:58:03;12.80;99.90
24682;DHT22;12802;53.390;-2.328;2023-04-30T03:00:28;12.80;99.90
24682;DHT22;12802;53.390;-2.328;2023-04-30T03:02:54;12.80;99.90
24682;DHT22;12802;53.390;-2.328;2023-04-30T03:05:20;12.80;99.90
24682;DHT22;12802;53.390;-2.328;2023-04-30T03:07:46;12.70;99.90
24682;DHT22;12802;53.390;-2.328;2023-04-30T03:10:12;12.80;99.90
24682;DHT22;12802;53.390;-2.328;2023-04-30T03:12:37;12.80;99.90
24682;DHT22;12802;53.390;-2.328;2023-04-30T03:15:04;12.80;99.90
24682;DHT22;12802;53.390;-2.328;2023-04-30T03:17:30;12.80;99.90
24682;DHT22;12802;53.390;-2.328;2023-04-30T03:19:55;12.70;99.90
24682;DHT22;12802;53.390;-2.328;2023-04-30T03:22:21;12.70;99.90
24682;DHT22;12802;53.390;-2.328;2023-04-30T03:24:48;12.70;99.90
24682;DHT22;12802;53.390;-2.328;2023-04-30T03:27:14;12.70;99.90
24682;DHT22;12802;53.390;-2.328;2023-04-30T03:29:41;12.80;99.90
24682;DHT22;12802;53.390;-2.328;2023-04-30T03:32:07;12.70;99.90
24682;DHT22;12802;53.390;-2.328;2023-04-30T03:34:33;12.70;99.90
24682;DHT22;12802;53.390;-2.328;2023-04-30T03:36:59;12.70;99.90
24682;DHT22;12802;53.390;-2.328;2023-04-30T03:39:26;12.70;99.90
24682;DHT22;12802;53.390;-2.328;2023-04-30T03:41:52;12.70;99.90
24682;DHT22;12802;53.390;-2.328;2023-04-30T03:44:18;12.70;99.90
24682;DHT22;12802;53.390;-2.328;2023-04-30T03:46:43;12.70;99.90
24682;DHT22;12802;53.390;-2.328;2023-04-30T03:49:09;12.70;99.90
24682;DHT22;12802;53.390;-2.328;2023-04-30T03:51:36;12.60;99.90
24682;DHT22;12802;53.390;-2.328;2023-04-30T03:54:06;12.70;99.90
24682;DHT22;12802;53.390;-2.328;2023-04-30T03:56:33;12.70;99.90
24682;DHT22;12802;53.390;-2.328;2023-04-30T03:58:59;12.70;99.90
24682;DHT22;12802;53.390;-2.328;2023-04-30T04:01:26;12.60;99.90
24682;DHT22;12802;53.390;-2.328;2023-04-30T04:03:53;12.70;99.90
24682;DHT22;12802;53.390;-2.328;2023-04-30T04:06:19;12.70;99.90
24682;DHT22;12802;53.390;-2.328;2023-04-30T04:08:45;12.70;99.90
24682;DHT22;12802;53.390;-2.328;2023-04-30T04:11:11;12.70;99.90
24682;DHT22;12802;53.390;-2.328;2023-04-30T04:13:37;12.70;99.90
24682;DHT22;12802;53.390;-2.328;2023-04-30T04:16:03;12.70;99.90
24682;DHT22;12802;53.390;-2.328;2023-04-30T04:18:29;12.70;99.90
24682;DHT22;12802;53.390;-2.328;2023-04-30T04:20:55;12.70;99.90
24682;DHT22;12802;53.390;-2.328;2023-04-30T04:23:22;12.70;99.90
24682;DHT22;12802;53.390;-2.328;2023-04-30T04:25:47;12.70;99.90
24682;DHT22;12802;53.390;-2.328;2023-04-30T04:28:17;12.70;99.90
24682;DHT22;12802;53.390;-2.328;2023-04-30T04:30:42;12.70;99.90
24682;DHT22;12802;53.390;-2.328;2023-04-30T04:33:08;12.70;99.90
24682;DHT22;12802;53.390;-2.328;2023-04-30T04:35:35;12.70;99.90
24682;DHT22;12802;53.390;-2.328;2023-04-30T04:38:01;12.70;99.90
24682;DHT22;12802;53.390;-2.328;2023-04-30T04:40:27;12.60;99.90
24682;DHT22;12802;53.390;-2.328;2023-04-30T04:42:53;12.60;99.90
24682;DHT22;12802;53.390;-2.328;2023-04-30T04:45:20;12.60;99.90
24682;DHT22;12802;53.390;-2.328;2023-04-30T04:47:47;12.60;99.90
24682;DHT22;12802;53.390;-2.328;2023-04-30T04:50:13;12.60;99.90
24682;DHT22;12802;53.390;-2.328;2023-04-30T04:52:39;12.60;99.90
24682;DHT22;12802;53.390;-2.328;2023-04-30T04:55:05;12.60;99.90
24682;DHT22;12802;53.390;-2.328;2023-04-30T04:57:32;12.60;99.90
24682;DHT22;12802;53.390;-2.328;2023-04-30T04:59:57;12.60;99.90
24682;DHT22;12802;53.390;-2.328;2023-04-30T05:02:23;12.50;99.90
24682;DHT22;12802;53.390;-2.328;2023-04-30T05:04:50;12.50;99.90
24682;DHT22;12802;53.390;-2.328;2023-04-30T05:07:17;12.60;99.90
24682;DHT22;12802;53.390;-2.328;2023-04-30T05:09:46;12.60;99.90
24682;DHT22;12802;53.390;-2.328;2023-04-30T05:12:15;12.60;99.90
24682;DHT22;12802;53.390;-2.328;2023-04-30T05:14:41;12.60;99.90
24682;DHT22;12802;53.390;-2.328;2023-04-30T05:17:07;12.60;99.90
24682;DHT22;12802;53.390;-2.328;2023-04-30T05:19:33;12.60;99.90
24682;DHT22;12802;53.390;-2.328;2023-04-30T05:21:58;12.60;99.90
24682;DHT22;12802;53.390;-2.328;2023-04-30T05:24:26;12.60;99.90
24682;DHT22;12802;53.390;-2.328;2023-04-30T05:26:52;12.60;99.90
24682;DHT22;12802;53.390;-2.328;2023-04-30T05:29:18;12.60;99.90
24682;DHT22;12802;53.390;-2.328;2023-04-30T05:31:44;12.60;99.90
24682;DHT22;12802;53.390;-2.328;2023-04-30T05:34:09;12.60;99.90
24682;DHT22;12802;53.390;-2.328;2023-04-30T05:36:35;12.50;99.90
24682;DHT22;12802;53.390;-2.328;2023-04-30T05:39:01;12.60;99.90
24682;DHT22;12802;53.390;-2.328;2023-04-30T05:41:27;12.50;99.90
24682;DHT22;12802;53.390;-2.328;2023-04-30T05:43:52;12.50;99.90
24682;DHT22;12802;53.390;-2.328;2023-04-30T05:46:18;12.50;99.90
24682;DHT22;12802;53.390;-2.328;2023-04-30T05:48:44;12.50;99.90
24682;DHT22;12802;53.390;-2.328;2023-04-30T05:51:10;12.50;99.90
24682;DHT22;12802;53.390;-2.328;2023-04-30T05:53:35;12.50;99.90
24682;DHT22;12802;53.390;-2.328;2023-04-30T05:56:01;12.50;99.90
24682;DHT22;12802;53.390;-2.328;2023-04-30T05:58:27;12.50;99.90
24682;DHT22;12802;53.390;-2.328;2023-04-30T06:00:53;12.60;99.90
24682;DHT22;12802;53.390;-2.328;2023-04-30T06:03:19;12.60;99.90
24682;DHT22;12802;53.390;-2.328;2023-04-30T06:05:45;12.60;99.90
24682;DHT22;12802;53.390;-2.328;2023-04-30T06:08:11;12.60;99.90
24682;DHT22;12802;53.390;-2.328;2023-04-30T06:10:37;12.50;99.90
24682;DHT22;12802;53.390;-2.328;2023-04-30T06:13:03;12.60;99.90
24682;DHT22;12802;53.390;-2.328;2023-04-30T06:15:30;12.70;99.90
24682;DHT22;12802;53.390;-2.328;2023-04-30T06:17:55;12.70;99.90
24682;DHT22;12802;53.390;-2.328;2023-04-30T06:20:21;12.70;99.90
24682;DHT22;12802;53.390;-2.328;2023-04-30T06:22:47;12.80;99.90
24682;DHT22;12802;53.390;-2.328;2023-04-30T06:25:13;12.80;99.90
24682;DHT22;12802;53.390;-2.328;2023-04-30T06:27:38;12.80;99.90
24682;DHT22;12802;53.390;-2.328;2023-04-30T06:30:05;12.80;99.90
24682;DHT22;12802;53.390;-2.328;2023-04-30T06:32:31;12.90;99.90
24682;DHT22;12802;53.390;-2.328;2023-04-30T06:34:57;12.80;99.90
24682;DHT22;12802;53.390;-2.328;2023-04-30T06:37:22;12.80;99.90
24682;DHT22;12802;53.390;-2.328;2023-04-30T06:39:48;12.80;99.90
24682;DHT22;12802;53.390;-2.328;2023-04-30T06:42:14;12.80;99.90
24682;DHT22;12802;53.390;-2.328;2023-04-30T06:44:40;12.70;99.90
24682;DHT22;12802;53.390;-2.328;2023-04-30T06:47:06;12.80;99.90
24682;DHT22;12802;53.390;-2.328;2023-04-30T06:49:32;12.70;99.90
24682;DHT22;12802;53.390;-2.328;2023-04-30T06:51:58;12.70;99.90
24682;DHT22;12802;53.390;-2.328;2023-04-30T06:54:24;12.70;99.90
24682;DHT22;12802;53.390;-2.328;2023-04-30T06:56:51;12.70;99.90
24682;DHT22;12802;53.390;-2.328;2023-04-30T06:59:17;12.60;99.90
24682;DHT22;12802;53.390;-2.328;2023-04-30T07:01:42;12.60;99.90
24682;DHT22;12802;53.390;-2.328;2023-04-30T07:04:08;12.70;99.90
24682;DHT22;12802;53.390;-2.328;2023-04-30T07:06:34;12.70;99.90
24682;DHT22;12802;53.390;-2.328;2023-04-30T07:09:00;12.70;99.90
24682;DHT22;12802;53.390;-2.328;2023-04-30T07:11:26;12.70;99.90
24682;DHT22;12802;53.390;-2.328;2023-04-30T07:13:52;12.70;99.90
24682;DHT22;12802;53.390;-2.328;2023-04-30T07:16:18;12.70;99.90
24682;DHT22;12802;53.390;-2.328;2023-04-30T07:18:44;12.80;99.90
24682;DHT22;12802;53.390;-2.328;2023-04-30T07:21:13;12.80;99.90
24682;DHT22;12802;53.390;-2.328;2023-04-30T07:23:39;12.90;99.90
24682;DHT22;12802;53.390;-2.328;2023-04-30T07:26:04;12.80;99.90
24682;DHT22;12802;53.390;-2.328;2023-04-30T07:28:30;12.80;99.90
24682;DHT22;12802;53.390;-2.328;2023-04-30T07:30:56;12.80;99.90
24682;DHT22;12802;53.390;-2.328;2023-04-30T07:33:22;12.70;99.90
24682;DHT22;12802;53.390;-2.328;2023-04-30T07:35:47;12.80;99.90
24682;DHT22;12802;53.390;-2.328;2023-04-30T07:38:13;12.70;99.90
24682;DHT22;12802;53.390;-2.328;2023-04-30T07:40:39;12.70;99.90
24682;DHT22;12802;53.390;-2.328;2023-04-30T07:43:05;12.80;99.90
24682;DHT22;12802;53.390;-2.328;2023-04-30T07:45:31;12.80;99.90
24682;DHT22;12802;53.390;-2.328;2023-04-30T07:47:58;12.80;99.90
24682;DHT22;12802;53.390;-2.328;2023-04-30T07:50:24;12.80;99.90
24682;DHT22;12802;53.390;-2.328;2023-04-30T07:52:49;12.80;99.90
24682;DHT22;12802;53.390;-2.328;2023-04-30T07:55:15;12.80;99.90
24682;DHT22;12802;53.390;-2.328;2023-04-30T07:57:41;12.80;99.90
24682;DHT22;12802;53.390;-2.328;2023-04-30T08:00:07;12.80;99.90
24682;DHT22;12802;53.390;-2.328;2023-04-30T08:02:39;12.80;99.90
24682;DHT22;12802;53.390;-2.328;2023-04-30T08:05:04;12.90;99.90
24682;DHT22;12802;53.390;-2.328;2023-04-30T08:07:30;12.90;99.90
24682;DHT22;12802;53.390;-2.328;2023-04-30T08:09:56;12.90;99.90
24682;DHT22;12802;53.390;-2.328;2023-04-30T08:12:22;12.90;99.90
24682;DHT22;12802;53.390;-2.328;2023-04-30T08:14:47;13.00;99.90
24682;DHT22;12802;53.390;-2.328;2023-04-30T08:17:13;12.90;99.90
24682;DHT22;12802;53.390;-2.328;2023-04-30T08:19:39;12.90;99.90
24682;DHT22;12802;53.390;-2.328;2023-04-30T08:22:05;12.80;99.90
24682;DHT22;12802;53.390;-2.328;2023-04-30T08:24:30;12.90;99.90
24682;DHT22;12802;53.390;-2.328;2023-04-30T08:26:56;12.80;99.90
24682;DHT22;12802;53.390;-2.328;2023-04-30T08:29:22;12.80;99.90
24682;DHT22;12802;53.390;-2.328;2023-04-30T08:31:47;12.80;99.90
24682;DHT22;12802;53.390;-2.328;2023-04-30T08:34:13;12.80;99.90
24682;DHT22;12802;53.390;-2.328;2023-04-30T08:36:39;13.00;99.90
24682;DHT22;12802;53.390;-2.328;2023-04-30T08:39:05;13.10;99.90
24682;DHT22;12802;53.390;-2.328;2023-04-30T08:41:32;13.20;99.90
24682;DHT22;12802;53.390;-2.328;2023-04-30T08:44:01;13.10;99.90
24682;DHT22;12802;53.390;-2.328;2023-04-30T08:46:31;13.10;99.90
24682;DHT22;12802;53.390;-2.328;2023-04-30T08:48:57;13.10;99.90
24682;DHT22;12802;53.390;-2.328;2023-04-30T08:51:23;13.20;99.90
24682;DHT22;12802;53.390;-2.328;2023-04-30T08:53:50;13.30;99.90
24682;DHT22;12802;53.390;-2.328;2023-04-30T08:56:19;13.40;99.90
24682;DHT22;12802;53.390;-2.328;2023-04-30T08:58:45;13.40;99.90
24682;DHT22;12802;53.390;-2.328;2023-04-30T09:01:12;13.40;99.90
24682;DHT22;12802;53.390;-2.328;2023-04-30T09:03:38;13.50;99.90
24682;DHT22;12802;53.390;-2.328;2023-04-30T09:06:03;13.60;99.90
24682;DHT22;12802;53.390;-2.328;2023-04-30T09:08:43;13.70;99.90
24682;DHT22;12802;53.390;-2.328;2023-04-30T09:11:28;13.70;99.90
24682;DHT22;12802;53.390;-2.328;2023-04-30T09:13:58;13.70;99.90
24682;DHT22;12802;53.390;-2.328;2023-04-30T09:16:26;13.70;99.90
24682;DHT22;12802;53.390;-2.328;2023-04-30T09:18:52;13.70;99.90
24682;DHT22;12802;53.390;-2.328;2023-04-30T09:21:32;13.80;99.90
24682;DHT22;12802;53.390;-2.328;2023-04-30T09:24:01;13.90;99.90
24682;DHT22;12802;53.390;-2.328;2023-04-30T09:26:37;14.00;99.90
24682;DHT22;12802;53.390;-2.328;2023-04-30T09:29:03;14.00;99.90
24682;DHT22;12802;53.390;-2.328;2023-04-30T09:31:36;13.90;99.90
24682;DHT22;12802;53.390;-2.328;2023-04-30T09:34:03;13.90;99.90
24682;DHT22;12802;53.390;-2.328;2023-04-30T09:36:29;13.90;99.90
24682;DHT22;12802;53.390;-2.328;2023-04-30T09:39:03;13.80;99.90
24682;DHT22;12802;53.390;-2.328;2023-04-30T09:41:30;13.90;99.90
24682;DHT22;12802;53.390;-2.328;2023-04-30T09:43:56;14.00;99.90
24682;DHT22;12802;53.390;-2.328;2023-04-30T09:46:33;14.00;99.90
24682;DHT22;12802;53.390;-2.328;2023-04-30T09:49:02;13.90;99.90
24682;DHT22;12802;53.390;-2.328;2023-04-30T09:51:28;13.90;99.90
24682;DHT22;12802;53.390;-2.328;2023-04-30T09:53:54;13.80;99.90
24682;DHT22;12802;53.390;-2.328;2023-04-30T09:56:24;13.70;99.90
24682;DHT22;12802;53.390;-2.328;2023-04-30T09:58:55;13.60;99.90
24682;DHT22;12802;53.390;-2.328;2023-04-30T10:01:26;13.50;99.90
24682;DHT22;12802;53.390;-2.328;2023-04-30T10:03:52;13.50;99.90
24682;DHT22;12802;53.390;-2.328;2023-04-30T10:06:20;13.50;99.90
24682;DHT22;12802;53.390;-2.328;2023-04-30T10:08:47;13.50;99.90
24682;DHT22;12802;53.390;-2.328;2023-04-30T10:11:18;13.50;99.90
24682;DHT22;12802;53.390;-2.328;2023-04-30T10:13:56;13.40;99.90
24682;DHT22;12802;53.390;-2.328;2023-04-30T10:16:42;13.50;99.90
24682;DHT22;12802;53.390;-2.328;2023-04-30T10:19:21;13.40;99.90
24682;DHT22;12802;53.390;-2.328;2023-04-30T10:21:48;13.50;99.90
24682;DHT22;12802;53.390;-2.328;2023-04-30T10:24:15;13.70;99.90
24682;DHT22;12802;53.390;-2.328;2023-04-30T10:26:44;13.70;99.90
24682;DHT22;12802;53.390;-2.328;2023-04-30T10:29:12;13.70;99.90
24682;DHT22;12802;53.390;-2.328;2023-04-30T10:31:40;13.70;99.90
24682;DHT22;12802;53.390;-2.328;2023-04-30T10:36:59;13.60;99.90
24682;DHT22;12802;53.390;-2.328;2023-04-30T10:39:29;13.60;99.90
24682;DHT22;12802;53.390;-2.328;2023-04-30T10:42:06;13.40;99.90
24682;DHT22;12802;53.390;-2.328;2023-04-30T10:44:37;13.40;99.90
24682;DHT22;12802;53.390;-2.328;2023-04-30T10:47:04;13.40;99.90
24682;DHT22;12802;53.390;-2.328;2023-04-30T10:49:30;13.40;99.90
24682;DHT22;12802;53.390;-2.328;2023-04-30T10:52:01;13.20;99.90
24682;DHT22;12802;53.390;-2.328;2023-04-30T10:54:31;13.30;99.90
24682;DHT22;12802;53.390;-2.328;2023-04-30T10:57:13;13.30;99.90
24682;DHT22;12802;53.390;-2.328;2023-04-30T10:59:44;13.40;99.90
24682;DHT22;12802;53.390;-2.328;2023-04-30T11:02:14;13.40;99.90
24682;DHT22;12802;53.390;-2.328;2023-04-30T11:05:19;13.30;99.90
24682;DHT22;12802;53.390;-2.328;2023-04-30T11:07:56;13.20;99.90
24682;DHT22;12802;53.390;-2.328;2023-04-30T11:10:25;13.00;99.90
24682;DHT22;12802;53.390;-2.328;2023-04-30T11:12:52;13.00;99.90
24682;DHT22;12802;53.390;-2.328;2023-04-30T11:15:44;13.00;99.90
24682;DHT22;12802;53.390;-2.328;2023-04-30T11:18:10;13.00;99.90
24682;DHT22;12802;53.390;-2.328;2023-04-30T11:20:47;13.00;99.90
24682;DHT22;12802;53.390;-2.328;2023-04-30T11:23:19;13.00;99.90
24682;DHT22;12802;53.390;-2.328;2023-04-30T11:25:47;13.00;99.90
24682;DHT22;12802;53.390;-2.328;2023-04-30T11:28:22;12.90;99.90
24682;DHT22;12802;53.390;-2.328;2023-04-30T11:30:57;12.90;99.90
24682;DHT22;12802;53.390;-2.328;2023-04-30T11:33:25;12.90;99.90
24682;DHT22;12802;53.390;-2.328;2023-04-30T11:35:52;12.80;99.90
24682;DHT22;12802;53.390;-2.328;2023-04-30T11:38:24;12.80;99.90
24682;DHT22;12802;53.390;-2.328;2023-04-30T11:40:51;12.90;99.90
24682;DHT22;12802;53.390;-2.328;2023-04-30T11:43:30;12.80;99.90
24682;DHT22;12802;53.390;-2.328;2023-04-30T11:46:00;12.60;99.90
24682;DHT22;12802;53.390;-2.328;2023-04-30T11:48:33;12.70;99.90
24682;DHT22;12802;53.390;-2.328;2023-04-30T11:51:01;12.70;99.90
24682;DHT22;12802;53.390;-2.328;2023-04-30T11:53:27;12.70;99.90
24682;DHT22;12802;53.390;-2.328;2023-04-30T11:55:54;12.70;99.90
24682;DHT22;12802;53.390;-2.328;2023-04-30T11:58:20;12.80;99.90
24682;DHT22;12802;53.390;-2.328;2023-04-30T12:00:47;12.80;99.90
24682;DHT22;12802;53.390;-2.328;2023-04-30T12:03:14;12.90;99.90
24682;DHT22;12802;53.390;-2.328;2023-04-30T12:05:40;12.90;99.90
24682;DHT22;12802;53.390;-2.328;2023-04-30T12:08:07;12.90;99.90
24682;DHT22;12802;53.390;-2.328;2023-04-30T12:10:36;13.00;99.90
24682;DHT22;12802;53.390;-2.328;2023-04-30T12:13:02;13.10;99.90
24682;DHT22;12802;53.390;-2.328;2023-04-30T12:15:28;13.20;99.90
24682;DHT22;12802;53.390;-2.328;2023-04-30T12:17:56;13.30;99.90
24682;DHT22;12802;53.390;-2.328;2023-04-30T12:20:25;13.30;99.90
24682;DHT22;12802;53.390;-2.328;2023-04-30T12:22:51;13.40;99.90
24682;DHT22;12802;53.390;-2.328;2023-04-30T12:25:19;13.30;99.90
24682;DHT22;12802;53.390;-2.328;2023-04-30T12:27:49;13.40;99.90
24682;DHT22;12802;53.390;-2.328;2023-04-30T12:30:19;13.40;99.90
24682;DHT22;12802;53.390;-2.328;2023-04-30T12:32:49;13.40;99.90
24682;DHT22;12802;53.390;-2.328;2023-04-30T12:35:16;13.50;99.90
24682;DHT22;12802;53.390;-2.328;2023-04-30T12:37:43;13.40;99.90
24682;DHT22;12802;53.390;-2.328;2023-04-30T12:40:10;13.50;99.90
24682;DHT22;12802;53.390;-2.328;2023-04-30T12:42:36;13.60;99.90
24682;DHT22;12802;53.390;-2.328;2023-04-30T12:45:02;13.60;99.90
24682;DHT22;12802;53.390;-2.328;2023-04-30T12:47:29;13.70;99.90
24682;DHT22;12802;53.390;-2.328;2023-04-30T12:49:55;13.70;99.90
24682;DHT22;12802;53.390;-2.328;2023-04-30T12:52:25;13.80;99.90
24682;DHT22;12802;53.390;-2.328;2023-04-30T12:54:51;13.80;99.90
24682;DHT22;12802;53.390;-2.328;2023-04-30T12:57:17;13.80;99.90
24682;DHT22;12802;53.390;-2.328;2023-04-30T13:02:20;13.80;99.90
24682;DHT22;12802;53.390;-2.328;2023-04-30T13:04:46;13.60;99.90
24682;DHT22;12802;53.390;-2.328;2023-04-30T13:07:13;13.50;99.90
24682;DHT22;12802;53.390;-2.328;2023-04-30T13:09:39;13.30;99.90
24682;DHT22;12802;53.390;-2.328;2023-04-30T13:12:05;13.20;99.90
24682;DHT22;12802;53.390;-2.328;2023-04-30T13:14:31;13.10;99.90
24682;DHT22;12802;53.390;-2.328;2023-04-30T13:16:58;13.10;99.90
24682;DHT22;12802;53.390;-2.328;2023-04-30T13:19:24;13.20;99.90
24682;DHT22;12802;53.390;-2.328;2023-04-30T13:21:50;13.20;99.90
24682;DHT22;12802;53.390;-2.328;2023-04-30T13:24:15;13.10;99.90
24682;DHT22;12802;53.390;-2.328;2023-04-30T13:26:43;13.10;99.90
24682;DHT22;12802;53.390;-2.328;2023-04-30T13:29:10;13.20;99.90
24682;DHT22;12802;53.390;-2.328;2023-04-30T13:31:35;13.20;99.90
24682;DHT22;12802;53.390;-2.328;2023-04-30T13:34:01;13.20;99.90
24682;DHT22;12802;53.390;-2.328;2023-04-30T13:36:27;13.20;99.90
24682;DHT22;12802;53.390;-2.328;2023-04-30T13:38:54;13.20;99.90
24682;DHT22;12802;53.390;-2.328;2023-04-30T13:41:20;13.10;99.90
24682;DHT22;12802;53.390;-2.328;2023-04-30T13:43:47;13.00;99.90
24682;DHT22;12802;53.390;-2.328;2023-04-30T13:46:13;12.90;99.90
24682;DHT22;12802;53.390;-2.328;2023-04-30T13:48:40;13.00;99.90
24682;DHT22;12802;53.390;-2.328;2023-04-30T13:51:06;13.00;99.90
24682;DHT22;12802;53.390;-2.328;2023-04-30T13:53:31;13.00;99.90
24682;DHT22;12802;53.390;-2.328;2023-04-30T13:55:57;13.00;99.90
24682;DHT22;12802;53.390;-2.328;2023-04-30T13:58:24;13.10;99.90
24682;DHT22;12802;53.390;-2.328;2023-04-30T14:00:50;13.10;99.90
24682;DHT22;12802;53.390;-2.328;2023-04-30T14:03:17;13.00;99.90
24682;DHT22;12802;53.390;-2.328;2023-04-30T14:05:43;13.00;99.90
24682;DHT22;12802;53.390;-2.328;2023-04-30T14:08:09;13.00;99.90
24682;DHT22;12802;53.390;-2.328;2023-04-30T14:10:35;13.00;99.90
24682;DHT22;12802;53.390;-2.328;2023-04-30T14:13:02;13.10;99.90
24682;DHT22;12802;53.390;-2.328;2023-04-30T14:15:29;13.10;99.90
24682;DHT22;12802;53.390;-2.328;2023-04-30T14:17:57;13.00;99.90
24682;DHT22;12802;53.390;-2.328;2023-04-30T14:20:22;13.00;99.90
24682;DHT22;12802;53.390;-2.328;2023-04-30T14:22:49;13.00;99.90
24682;DHT22;12802;53.390;-2.328;2023-04-30T14:25:15;13.00;99.90
24682;DHT22;12802;53.390;-2.328;2023-04-30T14:27:40;12.90;99.90
24682;DHT22;12802;53.390;-2.328;2023-04-30T14:30:07;12.90;99.90
24682;DHT22;12802;53.390;-2.328;2023-04-30T14:32:33;13.00;99.90
24682;DHT22;12802;53.390;-2.328;2023-04-30T14:34:59;13.00;99.90
24682;DHT22;12802;53.390;-2.328;2023-04-30T14:37:25;13.10;99.90
24682;DHT22;12802;53.390;-2.328;2023-04-30T14:39:51;13.10;99.90
24682;DHT22;12802;53.390;-2.328;2023-04-30T14:42:16;13.00;99.90
24682;DHT22;12802;53.390;-2.328;2023-04-30T14:44:42;13.00;99.90
24682;DHT22;12802;53.390;-2.328;2023-04-30T14:47:08;13.10;99.90
24682;DHT22;12802;53.390;-2.328;2023-04-30T14:49:34;13.10;99.90
24682;DHT22;12802;53.390;-2.328;2023-04-30T14:52:00;13.10;99.90
24682;DHT22;12802;53.390;-2.328;2023-04-30T14:54:26;13.10;99.90
24682;DHT22;12802;53.390;-2.328;2023-04-30T14:56:52;13.20;99.90
24682;DHT22;12802;53.390;-2.328;2023-04-30T14:59:18;13.20;99.90
24682;DHT22;12802;53.390;-2.328;2023-04-30T15:01:43;13.20;99.90
24682;DHT22;12802;53.390;-2.328;2023-04-30T15:04:09;13.20;99.90
24682;DHT22;12802;53.390;-2.328;2023-04-30T15:06:35;13.30;99.90
24682;DHT22;12802;53.390;-2.328;2023-04-30T15:09:01;13.30;99.90
24682;DHT22;12802;53.390;-2.328;2023-04-30T15:11:26;13.30;99.90
24682;DHT22;12802;53.390;-2.328;2023-04-30T15:13:52;13.40;99.90
24682;DHT22;12802;53.390;-2.328;2023-04-30T15:16:19;13.30;99.90
24682;DHT22;12802;53.390;-2.328;2023-04-30T15:18:45;13.40;99.90
24682;DHT22;12802;53.390;-2.328;2023-04-30T15:21:11;13.30;99.90
24682;DHT22;12802;53.390;-2.328;2023-04-30T15:23:37;13.30;99.90
24682;DHT22;12802;53.390;-2.328;2023-04-30T15:26:03;13.40;99.90
24682;DHT22;12802;53.390;-2.328;2023-04-30T15:28:30;13.40;99.90
24682;DHT22;12802;53.390;-2.328;2023-04-30T15:30:57;13.40;99.90
24682;DHT22;12802;53.390;-2.328;2023-04-30T15:33:23;13.40;99.90
24682;DHT22;12802;53.390;-2.328;2023-04-30T15:35:53;13.50;99.90
24682;DHT22;12802;53.390;-2.328;2023-04-30T15:38:19;13.60;99.90